Time;durP1;ratioP1;P1;durP2;ratioP2;P2;SDS_P1;SDS_P2;PMS_P1;PMS_P2;Temp;Humidity;BMP_temperature;BMP_pressure;BME280_temperature;BME280_humidity;BME280_pressure;Samples;Min_cycle;Max_cycle;Signal;HPM_P1;HPM_P2
2021/06/21 00:01:14;;;;;;;16.37;13.10;;;18.80;1.00;;;;;;4970287;28;20212;-65
2021/06/21 00:03:42;;;;;;;17.03;13.83;;;18.70;1.00;;;;;;4970319;28;20224;-66
2021/06/21 00:06:08;;;;;;;15.70;13.70;;;18.70;99.90;;;;;;4970411;28;20215;-64
2021/06/21 00:08:35;;;;;;;17.00;14.17;;;18.60;87.40;;;;;;4970333;28;20228;-66
2021/06/21 00:11:02;;;;;;;21.03;15.07;;;18.60;99.90;;;;;;4970338;28;20212;-65
2021/06/21 00:13:28;;;;;;;17.90;15.53;;;18.60;1.00;;;;;;4970245;28;20204;-65
2021/06/21 00:15:55;;;;;;;19.70;17.13;;;18.60;99.90;;;;;;4970441;28;20699;-65
2021/06/21 00:18:23;;;;;;;20.93;17.73;;;18.60;99.90;;;;;;4970130;28;20239;-65
2021/06/21 00:20:51;;;;;;;24.03;19.13;;;18.60;1.00;;;;;;4969979;28;20238;-65
2021/06/21 00:23:19;;;;;;;22.30;19.63;;;18.50;25.80;;;;;;4969821;28;20281;-65
2021/06/21 00:25:47;;;;;;;25.77;19.20;;;18.50;99.90;;;;;;4970290;28;20205;-66
2021/06/21 00:28:14;;;;;;;24.17;21.27;;;18.50;1.00;;;;;;4970015;28;20620;-66
2021/06/21 00:30:40;;;;;;;24.73;19.30;;;18.40;92.30;;;;;;4971850;28;20211;-66
2021/06/21 00:33:07;;;;;;;29.73;23.27;;;18.40;99.90;;;;;;4973491;28;20208;-65
2021/06/21 00:35:34;;;;;;;26.53;21.93;;;18.40;99.90;;;;;;4973441;28;20212;-66
2021/06/21 00:38:04;;;;;;;29.87;23.90;;;18.30;1.00;;;;;;4973123;28;20236;-65
2021/06/21 00:40:31;;;;;;;30.53;24.50;;;18.30;1.00;;;;;;4973276;28;20293;-66
2021/06/21 00:42:58;;;;;;;28.60;23.70;;;18.30;21.90;;;;;;4973405;28;20239;-65
2021/06/21 00:45:25;;;;;;;32.10;26.33;;;18.30;92.10;;;;;;4973313;28;20216;-66
2021/06/21 00:47:53;;;;;;;32.40;24.80;;;18.30;99.90;;;;;;4973269;28;20247;-65
2021/06/21 00:50:21;;;;;;;31.77;25.77;;;18.30;99.90;;;;;;4972760;28;20215;-66
2021/06/21 00:52:48;;;;;;;33.57;25.10;;;18.30;99.90;;;;;;4973275;28;20212;-65
2021/06/21 00:55:17;;;;;;;29.77;21.17;;;18.30;1.00;;;;;;4973182;28;20212;-66
2021/06/21 00:57:43;;;;;;;29.57;24.63;;;18.20;86.80;;;;;;4973118;28;20739;-66
2021/06/21 01:00:12;;;;;;;31.57;25.27;;;18.20;99.90;;;;;;4972895;28;20231;-66
2021/06/21 01:02:39;;;;;;;31.20;23.87;;;18.20;99.90;;;;;;4972944;28;20224;-66
2021/06/21 01:05:09;;;;;;;32.27;24.40;;;18.20;1.00;;;;;;4972649;28;20688;-65
2021/06/21 01:07:36;;;;;;;34.13;23.93;;;18.20;1.00;;;;;;4973013;28;20228;-66
2021/06/21 01:10:04;;;;;;;36.03;26.83;;;18.20;1.00;;;;;;4972996;28;20264;-66
2021/06/21 01:12:45;;;;;;;33.73;26.83;;;18.20;1.00;;;;;;4973136;28;20204;-66
2021/06/21 01:15:13;;;;;;;29.10;23.33;;;18.20;1.00;;;;;;4972990;28;20240;-65
2021/06/21 01:17:48;;;;;;;37.13;28.57;;;18.20;6.20;;;;;;4972531;28;20742;-66
2021/06/21 01:20:41;;;;;;;36.53;28.57;;;18.20;90.70;;;;;;4972727;28;20204;-65
2021/06/21 01:23:38;;;;;;;33.67;26.47;;;18.20;99.90;;;;;;4972630;28;20224;-66
2021/06/21 01:26:11;;;;;;;34.73;28.23;;;18.20;99.90;;;;;;4989181;28;20211;-65
2021/06/21 01:28:59;;;;;;;37.10;29.17;;;18.20;1.00;;;;;;4972513;28;20243;-65
2021/06/21 01:31:38;;;;;;;38.93;29.87;;;18.20;1.00;;;;;;4972455;28;20213;-66
2021/06/21 01:34:07;;;;;;;36.23;27.07;;;18.20;75.60;;;;;;4972348;28;20676;-65
2021/06/21 01:36:35;;;;;;;41.90;32.37;;;18.20;99.90;;;;;;4972645;28;20246;-66
2021/06/21 01:39:02;;;;;;;42.17;31.53;;;18.20;99.90;;;;;;4972313;28;20232;-66
2021/06/21 01:41:33;;;;;;;41.07;31.57;;;18.20;99.90;;;;;;4971633;28;20213;-65
2021/06/21 01:44:02;;;;;;;38.53;31.23;;;18.20;99.90;;;;;;4972397;28;20232;-65
2021/06/21 01:46:32;;;;;;;44.70;34.60;;;18.20;99.90;;;;;;4972255;28;20215;-65
2021/06/21 01:49:11;;;;;;;43.50;34.03;;;18.20;99.90;;;;;;4972294;28;20236;-65
2021/06/21 01:51:40;;;;;;;40.23;33.33;;;18.10;1.00;;;;;;4972311;28;20212;-65
2021/06/21 01:54:09;;;;;;;37.13;28.97;;;18.10;1.00;;;;;;4972431;28;20205;-65
2021/06/21 01:56:40;;;;;;;38.00;32.37;;;18.10;1.00;;;;;;4972402;28;20213;-64
2021/06/21 01:59:08;;;;;;;37.27;31.33;;;18.10;1.00;;;;;;4972225;28;20229;-64
2021/06/21 02:01:37;;;;;;;41.40;32.00;;;18.10;1.00;;;;;;4972173;28;20231;-65
2021/06/21 02:04:07;;;;;;;38.57;31.10;;;18.10;1.00;;;;;;4972090;28;20631;-65
2021/06/21 02:06:37;;;;;;;35.70;30.13;;;18.10;1.00;;;;;;4972225;28;20215;-65
2021/06/21 02:09:07;;;;;;;36.57;30.93;;;18.10;1.00;;;;;;4972037;28;20242;-65
2021/06/21 02:11:34;;;;;;;33.40;24.10;;;18.10;1.00;;;;;;4971707;28;20205;-65
2021/06/21 02:14:04;;;;;;;35.53;30.97;;;18.00;1.00;;;;;;4972311;28;20209;-65
2021/06/21 02:16:31;;;;;;;38.57;31.53;;;18.10;1.00;;;;;;4971939;28;20205;-65
2021/06/21 02:18:58;;;;;;;37.90;32.23;;;18.10;1.00;;;;;;4972077;28;20232;-65
2021/06/21 02:21:26;;;;;;;40.50;32.43;;;18.10;1.00;;;;;;4971679;28;20212;-65
2021/06/21 02:23:55;;;;;;;37.80;33.37;;;18.20;1.00;;;;;;4971732;28;20315;-65
2021/06/21 02:26:24;;;;;;;39.47;31.10;;;18.20;1.00;;;;;;4971579;28;20208;-65
2021/06/21 02:28:53;;;;;;;42.40;32.97;;;18.20;13.90;;;;;;4971671;28;20251;-65
2021/06/21 02:31:21;;;;;;;37.70;31.20;;;18.20;19.60;;;;;;4971631;28;20211;-66
2021/06/21 02:33:47;;;;;;;42.07;32.03;;;18.20;13.30;;;;;;4971750;28;20577;-65
2021/06/21 02:36:14;;;;;;;38.47;33.17;;;18.10;1.00;;;;;;4971514;28;20621;-65
2021/06/21 02:38:41;;;;;;;42.17;33.67;;;18.10;1.00;;;;;;4971355;28;20229;-65
2021/06/21 02:41:09;;;;;;;41.90;32.37;;;18.10;5.90;;;;;;4971575;28;20212;-66
2021/06/21 02:43:36;;;;;;;43.73;34.10;;;18.10;10.80;;;;;;4971509;28;20236;-66
2021/06/21 02:46:03;;;;;;;45.90;33.90;;;18.00;17.90;;;;;;4971508;28;20208;-65
2021/06/21 02:48:30;;;;;;;44.17;34.07;;;18.00;23.80;;;;;;4971451;28;20228;-66
2021/06/21 02:50:57;;;;;;;48.67;37.57;;;18.00;34.50;;;;;;4971397;28;20569;-65
2021/06/21 02:53:32;;;;;;;38.77;29.87;;;17.90;42.80;;;;;;4970884;28;20208;-67
2021/06/21 02:56:07;;;;;;;51.07;37.93;;;17.90;54.70;;;;;;4971375;28;20664;-65
2021/06/21 02:58:38;;;;;;;49.50;36.83;;;17.90;61.90;;;;;;4971258;28;20238;-66
2021/06/21 03:01:07;;;;;;;52.17;37.87;;;17.80;62.90;;;;;;4971032;28;20685;-65
2021/06/21 03:03:38;;;;;;;55.23;39.80;;;17.80;64.80;;;;;;4970874;28;20594;-65
2021/06/21 03:06:07;;;;;;;55.10;40.63;;;17.80;72.20;;;;;;4971465;28;20750;-66
2021/06/21 03:08:34;;;;;;;57.03;42.23;;;17.80;88.40;;;;;;4970910;28;20290;-65
2021/06/21 03:11:02;;;;;;;56.00;41.87;;;17.80;95.50;;;;;;4971053;28;20215;-65
2021/06/21 03:13:29;;;;;;;61.30;42.40;;;17.80;99.90;;;;;;4971143;28;20212;-66
2021/06/21 03:15:59;;;;;;;61.97;42.00;;;17.80;99.90;;;;;;4970951;28;20213;-66
2021/06/21 03:18:27;;;;;;;59.43;41.43;;;17.80;99.90;;;;;;4970825;28;20243;-66
2021/06/21 03:20:54;;;;;;;51.97;38.03;;;17.80;99.90;;;;;;4970890;28;20268;-66
2021/06/21 03:23:23;;;;;;;48.63;34.50;;;17.80;99.90;;;;;;4971010;28;20228;-66
2021/06/21 03:25:52;;;;;;;33.70;27.53;;;17.70;99.90;;;;;;4970824;28;20580;-65
2021/06/21 03:28:19;;;;;;;39.60;29.83;;;17.70;99.90;;;;;;4970772;28;20241;-66
2021/06/21 03:30:49;;;;;;;42.30;30.10;;;17.60;99.90;;;;;;4970350;28;20256;-66
2021/06/21 03:33:17;;;;;;;37.00;27.93;;;17.60;99.90;;;;;;4970936;28;20589;-65
2021/06/21 03:35:44;;;;;;;31.17;24.53;;;17.60;99.90;;;;;;4970927;28;20227;-65
2021/06/21 03:38:12;;;;;;;27.73;21.50;;;17.50;99.90;;;;;;4970727;28;20231;-65
2021/06/21 03:40:39;;;;;;;26.97;20.63;;;17.40;99.90;;;;;;4970599;28;20212;-66
2021/06/21 03:43:05;;;;;;;24.23;17.77;;;17.40;99.90;;;;;;4970555;28;20231;-66
2021/06/21 03:45:32;;;;;;;20.90;16.20;;;17.30;99.90;;;;;;4970316;28;20707;-65
2021/06/21 03:47:59;;;;;;;23.57;18.00;;;17.30;99.90;;;;;;4970613;28;20247;-66
2021/06/21 03:50:27;;;;;;;23.37;17.50;;;17.30;99.90;;;;;;4970584;28;20204;-67
2021/06/21 03:52:54;;;;;;;22.67;17.67;;;17.30;99.90;;;;;;4970679;28;20650;-64
2021/06/21 03:55:20;;;;;;;22.23;17.27;;;17.40;99.90;;;;;;4970607;28;20588;-65
2021/06/21 03:57:49;;;;;;;29.50;18.07;;;17.40;99.90;;;;;;4970148;28;20228;-66
2021/06/21 04:00:18;;;;;;;41.20;25.67;;;17.50;99.90;;;;;;4970316;28;20576;-66
2021/06/21 04:02:44;;;;;;;51.03;32.90;;;17.60;99.90;;;;;;4970199;28;20209;-66
2021/06/21 04:05:13;;;;;;;56.67;33.93;;;17.70;99.90;;;;;;4969727;28;20216;-66
2021/06/21 04:07:42;;;;;;;58.40;34.73;;;17.70;99.90;;;;;;4970551;28;20232;-66
2021/06/21 04:10:11;;;;;;;48.63;33.07;;;17.70;99.90;;;;;;4968069;28;20219;-65
2021/06/21 04:12:38;;;;;;;50.13;34.17;;;17.70;99.90;;;;;;4969622;28;20210;-65
2021/06/21 04:15:07;;;;;;;49.33;31.73;;;17.70;99.90;;;;;;4969893;28;20234;-65
2021/06/21 04:17:34;;;;;;;37.30;27.40;;;17.70;99.90;;;;;;4970071;28;20239;-65
2021/06/21 04:20:01;;;;;;;42.73;29.63;;;17.70;99.90;;;;;;4969983;28;20212;-66
2021/06/21 04:22:28;;;;;;;41.50;28.00;;;17.60;99.90;;;;;;4970193;28;20223;-64
2021/06/21 04:24:56;;;;;;;41.47;29.60;;;17.60;99.90;;;;;;4964910;28;20220;-64
2021/06/21 04:27:22;;;;;;;39.63;29.57;;;17.70;99.90;;;;;;4970027;28;20228;-65
2021/06/21 04:29:49;;;;;;;40.00;29.63;;;17.80;99.90;;;;;;4970041;28;20208;-64
2021/06/21 04:32:16;;;;;;;37.80;28.43;;;17.80;99.90;;;;;;4970002;28;20212;-64
2021/06/21 04:34:42;;;;;;;39.47;29.17;;;17.90;99.90;;;;;;4969792;28;20211;-64
2021/06/21 04:37:09;;;;;;;29.77;25.83;;;18.00;99.90;;;;;;4969745;28;20673;-64
2021/06/21 04:39:36;;;;;;;33.27;26.90;;;18.10;99.90;;;;;;4969455;28;20212;-63
2021/06/21 04:42:05;;;;;;;31.83;27.33;;;18.20;99.90;;;;;;4969415;28;20216;-63
2021/06/21 04:44:32;;;;;;;28.00;21.83;;;18.30;99.90;;;;;;4970065;28;20333;-62
2021/06/21 04:46:58;;;;;;;30.83;24.20;;;18.30;99.90;;;;;;4969690;28;20208;-62
2021/06/21 04:49:25;;;;;;;24.10;21.53;;;18.30;99.90;;;;;;4969747;28;20677;-63
2021/06/21 04:51:52;;;;;;;23.40;20.37;;;18.50;99.90;;;;;;4969907;28;20219;-62
2021/06/21 04:54:19;;;;;;;25.37;20.97;;;18.60;99.90;;;;;;4970780;28;20223;-61
2021/06/21 04:56:46;;;;;;;27.37;22.87;;;18.60;99.90;;;;;;4970670;28;20215;-63
2021/06/21 04:59:14;;;;;;;25.30;22.23;;;18.40;99.90;;;;;;4970631;28;20233;-62
2021/06/21 05:01:41;;;;;;;25.30;20.20;;;18.50;1.00;;;;;;4969587;28;20208;-63
2021/06/21 05:04:08;;;;;;;20.57;18.40;;;18.50;1.00;;;;;;4969620;28;20224;-63
2021/06/21 05:06:36;;;;;;;20.30;18.03;;;18.60;99.90;;;;;;4969318;28;20590;-63
2021/06/21 05:09:04;;;;;;;19.90;17.83;;;18.40;99.90;;;;;;4969444;28;20235;-63
2021/06/21 05:11:31;;;;;;;21.87;19.03;;;18.30;99.90;;;;;;4969567;28;20750;-64
2021/06/21 05:13:58;;;;;;;20.47;18.33;;;18.30;99.90;;;;;;4969655;28;20205;-63
2021/06/21 05:16:26;;;;;;;27.13;22.30;;;18.00;99.90;;;;;;4970137;28;20213;-63
2021/06/21 05:18:52;;;;;;;35.83;28.07;;;17.80;1.00;;;;;;4972546;28;20229;-62
2021/06/21 05:21:19;;;;;;;31.37;24.87;;;18.00;99.90;;;;;;4972484;28;20221;-62
2021/06/21 05:23:46;;;;;;;30.60;23.13;;;18.10;1.00;;;;;;4972751;28;20229;-67
2021/06/21 05:26:13;;;;;;;24.93;20.97;;;18.30;37.90;;;;;;4972166;28;20239;-65
2021/06/21 05:28:39;;;;;;;24.13;21.53;;;18.40;99.90;;;;;;4972230;28;20240;-68
2021/06/21 05:31:06;;;;;;;25.50;20.97;;;18.60;99.90;;;;;;4972418;28;20216;-63
2021/06/21 05:33:34;;;;;;;21.37;19.13;;;18.70;1.00;;;;;;4972335;28;20204;-64
2021/06/21 05:36:01;;;;;;;22.40;18.17;;;18.90;99.90;;;;;;4971036;28;20212;-64
2021/06/21 05:38:28;;;;;;;21.27;19.07;;;19.00;99.90;;;;;;4970130;28;20228;-64
2021/06/21 05:40:54;;;;;;;22.10;19.47;;;19.10;56.60;;;;;;4972048;28;20219;-62
2021/06/21 05:43:21;;;;;;;23.00;18.93;;;19.10;30.60;;;;;;4972278;28;20213;-64
2021/06/21 05:45:48;;;;;;;21.33;17.73;;;19.30;99.90;;;;;;4972021;28;20300;-62
2021/06/21 05:48:15;;;;;;;19.33;17.33;;;19.40;1.00;;;;;;4971637;28;20724;-62
2021/06/21 05:50:43;;;;;;;18.50;16.17;;;19.40;22.90;;;;;;4972141;28;20204;-64
2021/06/21 05:53:10;;;;;;;19.60;16.53;;;19.40;99.90;;;;;;4972068;28;20215;-63
2021/06/21 05:55:36;;;;;;;16.53;13.37;;;19.50;99.90;;;;;;4972000;28;20208;-63
2021/06/21 05:58:03;;;;;;;17.37;12.20;;;19.60;2.70;;;;;;4972084;28;20225;-63
2021/06/21 06:00:30;;;;;;;15.17;11.70;;;19.50;99.90;;;;;;4971560;28;20211;-64
2021/06/21 06:02:57;;;;;;;13.53;10.53;;;19.40;1.00;;;;;;4971597;28;20216;-64
2021/06/21 06:05:25;;;;;;;15.50;11.40;;;19.50;99.90;;;;;;4971851;28;20228;-64
2021/06/21 06:07:53;;;;;;;14.23;11.57;;;19.50;99.90;;;;;;4971428;28;20239;-64
2021/06/21 06:10:20;;;;;;;13.77;10.00;;;19.40;1.00;;;;;;4971517;28;20673;-64
2021/06/21 06:12:47;;;;;;;17.37;11.87;;;19.40;99.90;;;;;;4971410;28;20213;-66
2021/06/21 06:15:14;;;;;;;16.50;11.80;;;19.60;1.00;;;;;;4971008;28;20215;-65
2021/06/21 06:17:41;;;;;;;17.17;15.37;;;19.80;99.90;;;;;;4971081;28;20319;-66
2021/06/21 06:20:09;;;;;;;21.60;18.03;;;20.10;99.90;;;;;;4971462;28;20231;-65
2021/06/21 06:22:35;;;;;;;15.80;12.33;;;20.30;99.90;;;;;;4971717;28;20208;-65
2021/06/21 06:25:04;;;;;;;16.90;14.87;;;20.50;99.90;;;;;;4971245;28;20713;-66
2021/06/21 06:27:31;;;;;;;11.53;5.33;;;20.60;99.90;;;;;;4969932;28;20229;-66
2021/06/21 06:30:01;;;;;;;9.93;7.03;;;20.50;99.90;;;;;;4970696;28;20592;-72
2021/06/21 06:32:28;;;;;;;11.70;8.50;;;20.40;1.00;;;;;;4971586;28;20209;-65
2021/06/21 06:34:55;;;;;;;10.30;6.57;;;20.50;99.90;;;;;;4971440;28;20216;-65
2021/06/21 06:37:21;;;;;;;11.23;6.97;;;20.60;99.90;;;;;;4970966;28;20235;-64
2021/06/21 06:39:48;;;;;;;11.80;5.43;;;20.70;1.00;;;;;;4970981;28;20208;-63
2021/06/21 06:42:16;;;;;;;8.67;5.27;;;20.80;99.90;;;;;;4970877;28;20217;-63
2021/06/21 06:44:43;;;;;;;7.60;5.50;;;20.60;99.90;;;;;;4970719;28;20232;-66
2021/06/21 06:47:10;;;;;;;11.77;5.60;;;20.50;99.90;;;;;;4970879;28;20208;-66
2021/06/21 06:49:36;;;;;;;8.90;6.30;;;20.50;96.90;;;;;;4971110;28;20212;-66
2021/06/21 06:52:04;;;;;;;11.17;6.77;;;20.50;43.30;;;;;;4970684;28;20205;-66
2021/06/21 06:54:34;;;;;;;12.20;7.97;;;20.40;99.90;;;;;;4970909;28;20299;-67
2021/06/21 06:57:01;;;;;;;17.53;9.43;;;20.30;1.00;;;;;;4970337;28;20244;-66
2021/06/21 06:59:31;;;;;;;17.07;10.27;;;20.30;99.90;;;;;;4970924;28;20205;-63
2021/06/21 07:02:00;;;;;;;18.83;15.77;;;20.30;99.90;;;;;;4971165;28;20223;-62
2021/06/21 07:04:27;;;;;;;21.77;18.17;;;20.40;99.90;;;;;;4970704;28;20228;-64
2021/06/21 07:06:54;;;;;;;19.90;15.87;;;20.50;99.90;;;;;;4970608;28;20234;-63
2021/06/21 07:09:21;;;;;;;13.70;12.30;;;20.50;96.20;;;;;;4970545;28;20216;-63
2021/06/21 07:11:50;;;;;;;17.50;15.80;;;20.60;1.00;;;;;;4970451;28;20208;-63
2021/06/21 07:14:18;;;;;;;24.33;21.37;;;20.50;1.00;;;;;;4970778;28;20208;-64
2021/06/21 07:16:47;;;;;;;23.43;19.70;;;20.50;1.00;;;;;;4970237;28;20716;-63
2021/06/21 07:19:14;;;;;;;14.03;11.27;;;20.60;99.90;;;;;;4970547;28;20236;-64
2021/06/21 07:21:41;;;;;;;19.53;16.50;;;20.70;99.90;;;;;;4970649;28;20204;-65
2021/06/21 07:24:08;;;;;;;17.37;14.37;;;20.80;1.00;;;;;;4970253;28;20229;-62
2021/06/21 07:26:35;;;;;;;19.93;16.63;;;20.80;1.00;;;;;;4970379;28;20632;-62
2021/06/21 07:29:02;;;;;;;15.70;14.00;;;20.80;1.00;;;;;;4970001;28;20243;-65
2021/06/21 07:31:29;;;;;;;15.60;9.83;;;20.70;99.90;;;;;;4970193;28;20219;-64
2021/06/21 07:33:57;;;;;;;15.40;9.37;;;20.50;99.90;;;;;;4970500;28;20227;-64
2021/06/21 07:36:24;;;;;;;7.53;5.00;;;20.40;99.90;;;;;;4970334;28;20208;-64
2021/06/21 07:38:50;;;;;;;10.90;4.93;;;20.40;1.00;;;;;;4969408;28;20594;-64
2021/06/21 07:41:17;;;;;;;9.67;4.33;;;20.30;99.90;;;;;;4969983;28;20215;-64
2021/06/21 07:43:44;;;;;;;9.47;5.13;;;20.20;99.90;;;;;;4970225;28;20292;-65
2021/06/21 07:46:12;;;;;;;11.57;3.93;;;20.20;1.00;;;;;;4970459;28;20215;-65
2021/06/21 07:48:41;;;;;;;9.03;3.90;;;20.00;99.90;;;;;;4969844;28;20258;-65
2021/06/21 07:51:10;;;;;;;9.63;3.90;;;19.90;99.90;;;;;;4970063;28;20226;-66
2021/06/21 07:53:38;;;;;;;8.47;3.77;;;19.90;99.90;;;;;;4970424;28;20209;-66
2021/06/21 07:56:06;;;;;;;8.97;3.83;;;19.90;99.90;;;;;;4970268;28;20630;-65
2021/06/21 07:58:33;;;;;;;11.70;4.20;;;19.80;99.90;;;;;;4969843;28;20232;-68
2021/06/21 08:01:00;;;;;;;11.30;4.97;;;19.70;99.90;;;;;;4969900;28;20208;-64
2021/06/21 08:03:27;;;;;;;7.03;4.13;;;19.70;99.90;;;;;;4969995;28;20204;-64
2021/06/21 08:05:54;;;;;;;10.90;4.53;;;19.60;1.00;;;;;;4969752;28;20648;-64
2021/06/21 08:08:22;;;;;;;10.13;4.23;;;19.70;1.00;;;;;;4969815;28;20601;-64
2021/06/21 08:10:49;;;;;;;8.57;4.27;;;19.70;99.90;;;;;;4969779;28;20223;-60
2021/06/21 08:13:15;;;;;;;10.33;4.33;;;19.80;99.90;;;;;;4970018;28;20208;-64
2021/06/21 08:15:42;;;;;;;12.40;4.87;;;19.90;99.90;;;;;;4969809;28;20208;-65
2021/06/21 08:18:10;;;;;;;8.07;4.47;;;20.00;99.90;;;;;;4969262;28;20231;-66
2021/06/21 08:20:42;;;;;;;12.10;5.13;;;20.00;99.90;;;;;;4969914;28;20621;-66
2021/06/21 08:23:08;;;;;;;6.80;5.00;;;19.90;99.90;;;;;;4969583;28;20216;-66
2021/06/21 08:25:37;;;;;;;11.57;5.40;;;19.80;1.00;;;;;;4969833;28;20231;-66
2021/06/21 08:28:04;;;;;;;11.23;6.00;;;19.80;99.90;;;;;;4969362;28;20243;-66
2021/06/21 08:30:31;;;;;;;12.90;7.03;;;19.90;99.90;;;;;;4969565;28;20203;-65
2021/06/21 08:32:59;;;;;;;10.97;8.20;;;20.00;1.00;;;;;;4969418;28;20211;-65
2021/06/21 08:35:26;;;;;;;15.43;12.00;;;20.00;99.90;;;;;;4969640;28;20207;-65
2021/06/21 08:37:53;;;;;;;16.57;10.03;;;20.10;99.90;;;;;;4969380;28;20231;-65
2021/06/21 08:40:22;;;;;;;15.47;12.03;;;20.10;99.90;;;;;;4969504;28;20212;-65
2021/06/21 08:42:52;;;;;;;13.67;9.77;;;20.50;1.00;;;;;;4969667;28;20316;-65
2021/06/21 08:45:19;;;;;;;14.50;10.37;;;20.70;99.90;;;;;;4969159;28;20235;-67
2021/06/21 08:47:46;;;;;;;15.37;12.23;;;21.10;99.90;;;;;;4969322;28;20236;-67
2021/06/21 08:50:17;;;;;;;12.00;10.63;;;21.30;99.90;;;;;;4969099;28;20211;-64
2021/06/21 08:52:44;;;;;;;12.33;10.70;;;21.40;99.90;;;;;;4973016;28;20215;-66
2021/06/21 08:55:12;;;;;;;17.00;13.67;;;21.70;1.00;;;;;;4972708;28;20684;-63
2021/06/21 08:57:41;;;;;;;17.10;15.20;;;21.70;99.90;;;;;;4972506;28;20221;-64
2021/06/21 09:00:14;;;;;;;15.90;14.20;;;21.50;99.90;;;;;;4972578;28;20258;-64
2021/06/21 09:02:41;;;;;;;17.40;15.67;;;21.30;25.30;;;;;;4972847;28;20212;-64
2021/06/21 09:05:09;;;;;;;19.23;17.33;;;21.30;99.90;;;;;;4972651;28;20232;-64
2021/06/21 09:07:37;;;;;;;21.10;18.83;;;21.30;99.90;;;;;;4972195;28;20224;-65
2021/06/21 09:10:10;;;;;;;21.73;19.43;;;21.20;99.90;;;;;;4972487;28;20208;-65
2021/06/21 09:12:37;;;;;;;24.63;20.27;;;21.10;99.90;;;;;;4972480;28;20217;-65
2021/06/21 09:15:10;;;;;;;24.07;18.03;;;21.10;1.00;;;;;;4972637;28;20209;-65
2021/06/21 09:17:39;;;;;;;27.47;24.50;;;21.30;69.20;;;;;;4971839;28;20232;-65
2021/06/21 09:20:07;;;;;;;26.63;23.73;;;21.20;99.90;;;;;;4971962;28;20852;-65
2021/06/21 09:22:37;;;;;;;29.63;26.63;;;21.30;1.00;;;;;;4972945;28;20211;-65
2021/06/21 09:25:07;;;;;;;32.23;28.70;;;21.20;99.90;;;;;;4972555;28;20221;-65
2021/06/21 09:27:35;;;;;;;33.60;29.97;;;20.80;28.10;;;;;;4971985;28;20220;-65
2021/06/21 09:30:05;;;;;;;35.57;31.67;;;20.60;99.90;;;;;;4972714;28;20220;-67
2021/06/21 09:32:42;;;;;;;36.10;32.17;;;20.70;99.90;;;;;;4964945;28;20793;-65
2021/06/21 09:35:12;;;;;;;36.10;29.70;;;20.80;99.90;;;;;;4972395;28;20239;-64
2021/06/21 09:37:47;;;;;;;39.67;32.43;;;20.90;1.00;;;;;;4971883;28;20240;-65
2021/06/21 09:40:29;;;;;;;40.03;34.80;;;20.90;99.90;;;;;;4972092;28;20247;-64
2021/06/21 09:42:56;;;;;;;43.50;34.40;;;20.90;99.90;;;;;;4970027;28;20231;-64
2021/06/21 09:45:23;;;;;;;45.40;35.63;;;20.80;99.90;;;;;;4972042;28;20604;-63
2021/06/21 09:47:52;;;;;;;42.90;34.23;;;20.70;99.90;;;;;;4971546;28;20229;-64
2021/06/21 09:50:21;;;;;;;41.57;35.37;;;20.60;99.90;;;;;;4972133;28;20609;-65
2021/06/21 09:52:54;;;;;;;44.53;36.40;;;20.50;99.90;;;;;;4971445;28;20272;-64
2021/06/21 09:55:24;;;;;;;49.67;35.77;;;20.40;1.00;;;;;;4971938;28;20657;-64
2021/06/21 09:58:02;;;;;;;49.10;34.60;;;20.30;1.00;;;;;;4971398;28;20232;-66
2021/06/21 10:00:29;;;;;;;49.13;34.37;;;20.30;1.00;;;;;;4971355;28;20205;-66
2021/06/21 10:03:08;;;;;;;51.50;35.23;;;19.80;99.90;;;;;;4970914;28;20213;-65
2021/06/21 10:05:39;;;;;;;55.43;36.73;;;19.60;1.00;;;;;;4971736;28;20228;-64
2021/06/21 10:08:07;;;;;;;49.40;34.10;;;19.40;24.30;;;;;;4971157;28;20228;-64
2021/06/21 10:10:35;;;;;;;49.70;33.23;;;19.20;1.00;;;;;;4971189;28;20219;-64
2021/06/21 10:13:02;;;;;;;45.03;30.40;;;19.30;70.30;;;;;;4971634;28;20204;-64
2021/06/21 10:15:29;;;;;;;41.50;28.63;;;19.20;1.00;;;;;;4971402;28;20213;-65
2021/06/21 10:17:56;;;;;;;47.87;31.30;;;19.20;99.90;;;;;;4971295;28;20232;-64
2021/06/21 10:20:24;;;;;;;43.87;29.83;;;19.20;1.00;;;;;;4971076;28;20208;-65
2021/06/21 10:22:51;;;;;;;49.53;31.27;;;19.10;99.90;;;;;;4971356;28;20208;-66
2021/06/21 10:25:19;;;;;;;44.67;30.57;;;19.10;1.00;;;;;;4971179;28;20704;-66
2021/06/21 10:27:47;;;;;;;48.10;30.83;;;18.90;99.90;;;;;;4971167;28;20659;-65
2021/06/21 10:30:16;;;;;;;46.27;30.70;;;18.70;99.90;;;;;;4971470;28;20586;-63
2021/06/21 10:32:43;;;;;;;50.23;34.17;;;18.50;99.90;;;;;;4971383;28;20587;-64
2021/06/21 10:35:12;;;;;;;53.40;34.73;;;18.50;99.90;;;;;;4971291;28;20232;-65
2021/06/21 10:38:01;;;;;;;56.77;35.23;;;18.50;1.00;;;;;;4970793;28;20233;-66
2021/06/21 10:40:29;;;;;;;57.03;37.03;;;18.40;99.90;;;;;;4971155;28;20208;-66
2021/06/21 10:42:56;;;;;;;63.93;39.80;;;18.20;1.00;;;;;;4971005;28;20216;-64
2021/06/21 10:45:24;;;;;;;60.27;38.97;;;18.00;1.00;;;;;;4971447;28;20212;-66
2021/06/21 10:48:05;;;;;;;64.50;39.03;;;17.90;1.00;;;;;;4970697;28;20236;-66
2021/06/21 10:50:32;;;;;;;52.10;32.63;;;18.00;99.90;;;;;;4970764;28;20208;-66
2021/06/21 10:53:02;;;;;;;54.47;33.30;;;17.90;1.00;;;;;;4970766;28;20216;-65
2021/06/21 10:55:41;;;;;;;49.27;30.97;;;17.70;99.90;;;;;;4971128;28;20252;-64
2021/06/21 10:58:28;;;;;;;40.37;26.00;;;17.70;1.00;;;;;;4970553;28;20235;-65
2021/06/21 11:00:56;;;;;;;37.50;25.57;;;17.80;1.00;;;;;;4976789;28;20204;-65
2021/06/21 11:03:35;;;;;;;36.33;21.70;;;17.90;99.90;;;;;;4971186;28;20701;-65
2021/06/21 11:06:04;;;;;;;22.20;15.60;;;17.80;99.90;;;;;;4970827;28;20204;-66
2021/06/21 11:08:45;;;;;;;21.67;15.27;;;17.70;99.90;;;;;;4962835;28;20306;-66
2021/06/21 11:11:52;;;;;;;21.37;14.90;;;17.60;1.00;;;;;;4970877;28;20259;-65
2021/06/21 11:14:24;;;;;;;21.47;14.03;;;17.80;99.90;;;;;;4970831;28;20214;-65
2021/06/21 11:17:13;;;;;;;16.07;11.47;;;17.90;99.90;;;;;;4970460;28;20259;-64
2021/06/21 11:19:41;;;;;;;15.00;12.40;;;17.90;99.90;;;;;;4970523;28;20212;-66
2021/06/21 11:22:08;;;;;;;17.90;15.60;;;17.60;1.90;;;;;;4970710;28;20635;-68
2021/06/21 11:24:57;;;;;;;17.80;16.00;;;17.50;1.00;;;;;;4970710;28;20201;-65
2021/06/21 11:27:41;;;;;;;19.33;17.00;;;17.10;99.90;;;;;;4970405;28;20239;-65
2021/06/21 11:30:24;;;;;;;23.10;19.77;;;17.00;1.00;;;;;;4970349;28;21023;-65
2021/06/21 11:32:54;;;;;;;18.17;15.60;;;16.80;1.00;;;;;;4971532;28;20213;-66
2021/06/21 11:35:54;;;;;;;20.00;15.43;;;16.60;99.90;;;;;;4970612;28;20645;-64
2021/06/21 11:38:22;;;;;;;18.97;16.97;;;16.50;99.90;;;;;;4970059;28;20236;-65
2021/06/21 11:41:20;;;;;;;16.37;14.67;;;16.30;1.00;;;;;;4970108;28;20695;-65
2021/06/21 11:43:49;;;;;;;15.57;12.47;;;16.20;99.90;;;;;;4968129;28;20212;-65
2021/06/21 11:46:38;;;;;;;9.57;8.67;;;16.20;32.90;;;;;;4968760;28;20204;-65
2021/06/21 11:49:07;;;;;;;7.63;6.93;;;16.10;99.90;;;;;;4969833;28;20320;-64
2021/06/21 11:51:34;;;;;;;16.03;14.10;;;16.10;1.00;;;;;;4969840;28;20904;-65
2021/06/21 11:54:02;;;;;;;16.57;14.77;;;16.10;1.00;;;;;;4970370;28;20212;-65
2021/06/21 11:56:31;;;;;;;17.47;15.63;;;16.00;99.90;;;;;;4969980;28;20224;-64
2021/06/21 11:58:59;;;;;;;17.53;15.07;;;15.90;1.00;;;;;;4969747;28;20708;-67
2021/06/21 12:01:28;;;;;;;18.07;14.83;;;15.90;99.90;;;;;;4969857;28;20562;-66
2021/06/21 12:03:56;;;;;;;17.00;15.23;;;15.90;1.00;;;;;;4969863;28;20244;-66
2021/06/21 12:06:22;;;;;;;16.10;14.40;;;15.70;99.90;;;;;;4970029;28;20599;-66
2021/06/21 12:08:49;;;;;;;17.00;15.27;;;15.70;99.90;;;;;;4970081;28;20260;-66
2021/06/21 12:11:18;;;;;;;16.43;14.67;;;15.60;1.00;;;;;;4969952;28;20574;-65
2021/06/21 12:13:55;;;;;;;18.97;16.20;;;15.60;99.90;;;;;;4969861;28;20220;-66
2021/06/21 12:16:22;;;;;;;14.67;13.07;;;15.50;99.90;;;;;;4970034;28;20224;-65
2021/06/21 12:18:54;;;;;;;15.80;14.20;;;15.40;99.90;;;;;;4969894;28;20232;-65
2021/06/21 12:21:32;;;;;;;18.00;14.90;;;15.40;1.00;;;;;;4969113;28;20208;-66
2021/06/21 12:24:18;;;;;;;12.80;11.57;;;15.20;99.90;;;;;;4970082;28;20212;-65
2021/06/21 12:26:46;;;;;;;12.70;11.50;;;15.30;20.10;;;;;;4971994;28;20852;-64
2021/06/21 12:29:22;;;;;;;11.93;10.83;;;15.30;1.00;;;;;;4973172;28;20236;-63
2021/06/21 12:31:54;;;;;;;11.53;10.33;;;15.20;1.00;;;;;;4973074;28;20700;-63
2021/06/21 12:34:43;;;;;;;11.03;9.93;;;15.10;1.00;;;;;;4973157;28;20212;-64
2021/06/21 12:37:15;;;;;;;10.00;9.00;;;15.10;99.90;;;;;;4972942;28;20228;-63
2021/06/21 12:39:42;;;;;;;10.27;9.07;;;15.00;99.90;;;;;;4973312;28;20204;-68
2021/06/21 12:42:10;;;;;;;9.13;8.23;;;15.10;1.00;;;;;;4973265;28;20213;-65
2021/06/21 12:44:38;;;;;;;10.00;9.00;;;15.10;99.90;;;;;;4973673;28;20216;-66